createdAt,value
2022-11-29T00:01:42.917Z,2.35
2022-11-29T00:04:12.671Z,1.80
2022-11-29T00:06:42.482Z,1.73
2022-11-29T00:09:13.463Z,1.70
2022-11-29T00:12:01.105Z,2.25
2022-11-29T00:14:31.000Z,1.48
2022-11-29T00:17:03.125Z,1.65
2022-11-29T00:19:32.546Z,1.42
2022-11-29T00:22:02.817Z,1.45
2022-11-29T00:24:32.731Z,1.13
2022-11-29T00:27:02.290Z,1.20
2022-11-29T00:29:31.385Z,1.63
2022-11-29T00:32:00.202Z,1.75
2022-11-29T00:34:28.534Z,1.90
2022-11-29T00:36:57.173Z,1.63
2022-11-29T00:39:26.921Z,1.50
2022-11-29T00:41:55.258Z,1.65
2022-11-29T00:44:24.481Z,3.13
2022-11-29T00:46:52.697Z,3.40
2022-11-29T00:49:20.870Z,2.25
2022-11-29T00:51:49.013Z,2.78
2022-11-29T00:54:17.491Z,2.58
2022-11-29T00:56:47.119Z,1.60
2022-11-29T00:59:15.483Z,2.22
2022-11-29T01:01:43.689Z,2.08
2022-11-29T01:04:11.942Z,1.75
2022-11-29T01:06:40.171Z,1.98
2022-11-29T01:09:08.357Z,1.63
2022-11-29T01:11:37.029Z,2.50
2022-11-29T01:14:06.986Z,2.83
2022-11-29T01:16:35.248Z,1.55
2022-11-29T01:19:04.029Z,1.58
2022-11-29T01:21:32.532Z,1.27
2022-11-29T01:24:01.806Z,1.77
2022-11-29T01:26:31.749Z,1.58
2022-11-29T01:29:00.707Z,1.23
2022-11-29T01:31:32.626Z,1.92
2022-11-29T01:34:03.794Z,1.83
2022-11-29T01:36:33.041Z,1.90
2022-11-29T01:39:02.228Z,1.08
2022-11-29T01:41:32.982Z,1.88
2022-11-29T01:44:05.771Z,2.00
2022-11-29T01:46:37.443Z,1.58
2022-11-29T01:49:10.577Z,1.63
2022-11-29T01:51:41.281Z,1.42
2022-11-29T01:54:11.299Z,1.75
2022-11-29T01:56:41.007Z,1.35
2022-11-29T01:59:12.706Z,0.88
2022-11-29T02:01:42.660Z,1.73
2022-11-29T02:04:11.060Z,1.08
2022-11-29T02:06:40.957Z,1.40
2022-11-29T02:09:19.730Z,2.35
2022-11-29T02:12:08.850Z,1.92
2022-11-29T02:14:50.085Z,1.45
2022-11-29T02:17:28.564Z,1.27
2022-11-29T02:20:19.258Z,1.33
2022-11-29T02:22:58.844Z,1.55
2022-11-29T02:25:43.147Z,1.17
2022-11-29T02:28:39.309Z,3.70
2022-11-29T02:31:53.720Z,1.60
2022-11-29T02:34:40.633Z,2.03
2022-11-29T02:37:31.014Z,2.00
2022-11-29T02:40:33.898Z,1.83
2022-11-29T02:43:36.521Z,1.48
2022-11-29T02:46:17.862Z,2.13
2022-11-29T02:48:56.786Z,1.58
2022-11-29T02:51:36.058Z,2.30
2022-11-29T02:54:13.307Z,1.08
2022-11-29T02:56:47.735Z,1.95
2022-11-29T02:59:26.114Z,1.00
2022-11-29T03:02:03.265Z,1.25
2022-11-29T03:04:35.349Z,1.30
2022-11-29T03:07:12.835Z,1.35
2022-11-29T03:09:46.391Z,1.15
2022-11-29T03:12:24.457Z,0.80
2022-11-29T03:15:01.745Z,1.00
2022-11-29T03:17:42.454Z,1.25
2022-11-29T03:20:28.020Z,1.35
2022-11-29T03:23:19.400Z,1.02
2022-11-29T03:25:53.528Z,1.35
2022-11-29T03:28:28.660Z,1.20
2022-11-29T03:31:02.777Z,1.75
2022-11-29T03:33:37.069Z,1.67
2022-11-29T03:36:11.683Z,1.63
2022-11-29T03:38:43.619Z,1.25
2022-11-29T03:41:21.504Z,1.10
2022-11-29T03:43:56.563Z,1.58
2022-11-29T03:46:31.885Z,1.23
2022-11-29T03:49:04.535Z,1.55
2022-11-29T03:51:46.679Z,1.33
2022-11-29T03:54:22.684Z,2.38
2022-11-29T03:56:51.504Z,1.83
2022-11-29T03:59:32.337Z,1.65
2022-11-29T04:02:37.336Z,1.55
2022-11-29T04:05:37.596Z,2.13
2022-11-29T04:08:29.042Z,1.40
2022-11-29T04:11:25.358Z,1.48
2022-11-29T04:14:29.027Z,1.33
2022-11-29T04:17:38.856Z,0.95
2022-11-29T04:20:51.352Z,1.05
2022-11-29T04:23:41.961Z,1.45
2022-11-29T04:26:40.978Z,2.47
2022-11-29T04:29:19.451Z,1.23
2022-11-29T04:32:11.676Z,1.10
2022-11-29T04:35:00.220Z,0.63
2022-11-29T04:37:49.605Z,0.80
2022-11-29T04:40:33.685Z,1.15
2022-11-29T04:43:15.002Z,1.45
2022-11-29T04:46:12.017Z,1.55
2022-11-29T04:49:16.276Z,1.00
2022-11-29T04:52:03.604Z,1.42
2022-11-29T04:54:37.717Z,0.63
2022-11-29T04:57:11.576Z,0.95
2022-11-29T04:59:47.279Z,0.85
2022-11-29T05:02:34.733Z,1.30
2022-11-29T05:05:15.624Z,1.70
2022-11-29T05:07:52.820Z,0.90
2022-11-29T05:10:30.190Z,0.50
2022-11-29T05:13:08.228Z,0.88
2022-11-29T05:16:09.244Z,1.02
2022-11-29T05:18:54.898Z,1.02
2022-11-29T05:21:33.071Z,0.95
2022-11-29T05:24:19.210Z,1.00
2022-11-29T05:26:56.453Z,1.30
2022-11-29T05:29:32.001Z,1.10
2022-11-29T05:32:22.188Z,0.63
2022-11-29T05:35:15.073Z,0.73
2022-11-29T05:37:49.693Z,0.90
2022-11-29T05:40:47.773Z,0.45
2022-11-29T05:43:43.134Z,0.70
2022-11-29T05:46:19.925Z,0.95
2022-11-29T05:48:59.003Z,0.55
2022-11-29T05:51:41.527Z,0.43
2022-11-29T05:54:24.213Z,0.20
2022-11-29T05:57:01.274Z,0.47
2022-11-29T05:59:31.412Z,0.70
2022-11-29T06:02:12.723Z,0.57
2022-11-29T06:04:56.122Z,0.63
2022-11-29T06:07:30.965Z,0.45
2022-11-29T06:10:04.087Z,1.10
2022-11-29T06:12:38.185Z,0.60
2022-11-29T06:15:25.531Z,0.55
2022-11-29T06:18:13.729Z,0.70
2022-11-29T06:21:04.012Z,0.30
2022-11-29T06:23:53.343Z,0.40
2022-11-29T06:26:38.866Z,1.00
2022-11-29T06:29:26.143Z,13.27
2022-11-29T06:32:03.999Z,4.82
2022-11-29T06:34:44.313Z,0.75
2022-11-29T06:37:21.439Z,0.45
2022-11-29T06:39:50.300Z,0.50
2022-11-29T06:42:18.831Z,0.98
2022-11-29T06:44:50.120Z,1.55
2022-11-29T06:47:25.773Z,0.73
2022-11-29T06:50:01.047Z,0.93
2022-11-29T06:52:42.751Z,1.00
2022-11-29T06:55:19.865Z,0.80
2022-11-29T06:57:59.991Z,1.08
2022-11-29T07:00:37.558Z,0.88
2022-11-29T07:03:42.175Z,0.40
2022-11-29T07:06:16.750Z,0.90
2022-11-29T07:08:48.602Z,1.25
2022-11-29T07:11:17.717Z,0.80
2022-11-29T07:13:46.856Z,0.88
2022-11-29T07:16:22.962Z,0.93
2022-11-29T07:18:59.832Z,1.48
2022-11-29T07:21:44.477Z,0.40
2022-11-29T07:24:23.778Z,0.50
2022-11-29T07:26:59.736Z,1.42
2022-11-29T07:29:37.317Z,0.85
2022-11-29T07:32:15.296Z,1.05
2022-11-29T07:34:54.177Z,0.88
2022-11-29T07:37:30.006Z,0.40
2022-11-29T07:40:04.494Z,0.82
2022-11-29T07:42:43.078Z,0.73
2022-11-29T07:45:18.449Z,1.13
2022-11-29T07:47:47.040Z,1.00
2022-11-29T07:50:15.603Z,0.60
2022-11-29T07:52:43.901Z,0.70
2022-11-29T07:55:18.940Z,0.93
2022-11-29T07:57:48.296Z,1.33
2022-11-29T08:00:18.833Z,0.90
2022-11-29T08:02:47.753Z,0.45
2022-11-29T08:05:16.130Z,0.98
2022-11-29T08:07:44.617Z,0.80
2022-11-29T08:10:16.775Z,0.85
2022-11-29T08:12:48.005Z,1.38
2022-11-29T08:15:16.540Z,1.00
2022-11-29T08:17:44.933Z,1.35
2022-11-29T08:20:14.975Z,3.25
2022-11-29T08:22:43.881Z,2.72
2022-11-29T08:25:13.024Z,1.33
2022-11-29T08:27:42.721Z,1.50
2022-11-29T08:30:11.395Z,1.50
2022-11-29T08:32:39.886Z,1.55
2022-11-29T08:35:08.461Z,1.13
2022-11-29T08:37:37.302Z,1.50
2022-11-29T08:40:06.046Z,1.40
2022-11-29T08:42:34.329Z,1.35
2022-11-29T08:45:04.355Z,1.35
2022-11-29T08:47:38.877Z,1.20
2022-11-29T08:50:12.297Z,0.85
2022-11-29T08:53:00.405Z,1.40
2022-11-29T08:55:33.053Z,2.22
2022-11-29T08:58:05.878Z,1.30
2022-11-29T09:00:36.383Z,1.17
2022-11-29T09:03:23.643Z,1.45
2022-11-29T09:05:52.178Z,1.08
2022-11-29T09:08:21.659Z,1.08
2022-11-29T09:10:50.093Z,1.30
2022-11-29T09:13:18.802Z,1.48
2022-11-29T09:15:48.560Z,1.63
2022-11-29T09:18:18.703Z,0.98
2022-11-29T09:20:47.121Z,1.35
2022-11-29T09:23:15.404Z,1.45
2022-11-29T09:25:49.836Z,1.95
2022-11-29T09:28:18.240Z,1.42
2022-11-29T09:30:46.505Z,1.40
2022-11-29T09:33:16.243Z,1.38
2022-11-29T09:35:44.506Z,1.40
2022-11-29T09:38:13.358Z,1.30
2022-11-29T09:40:48.055Z,1.80
2022-11-29T09:43:27.846Z,2.00
2022-11-29T09:46:03.359Z,1.75
2022-11-29T09:49:00.358Z,2.00
2022-11-29T09:51:32.692Z,2.25
2022-11-29T09:54:20.463Z,2.72
2022-11-29T09:56:53.457Z,2.55
2022-11-29T09:59:27.571Z,1.55
2022-11-29T10:02:04.517Z,3.05
2022-11-29T10:04:40.451Z,1.48
2022-11-29T10:07:18.586Z,7.30
2022-11-29T10:09:52.443Z,1.10
2022-11-29T10:12:29.039Z,1.48
2022-11-29T10:15:04.254Z,1.45
2022-11-29T10:17:38.366Z,1.13
2022-11-29T10:20:14.258Z,1.08
2022-11-29T10:22:49.630Z,1.58
2022-11-29T10:25:24.123Z,1.02
2022-11-29T10:27:53.417Z,0.70
2022-11-29T10:30:22.140Z,0.68
2022-11-29T10:32:56.504Z,1.38
2022-11-29T10:35:26.423Z,0.90
2022-11-29T10:38:29.263Z,1.27
2022-11-29T10:43:17.353Z,0.52
2022-11-29T10:45:50.623Z,1.70
2022-11-29T10:48:22.332Z,1.00
2022-11-29T10:50:53.757Z,1.10
2022-11-29T10:53:25.338Z,1.50
2022-11-29T10:56:00.980Z,1.02
2022-11-29T10:58:30.336Z,0.95
2022-11-29T11:01:01.134Z,1.05
2022-11-29T11:03:36.947Z,1.20
2022-11-29T11:06:12.873Z,0.88
2022-11-29T11:08:44.685Z,1.40
2022-11-29T11:11:13.994Z,0.90
2022-11-29T11:13:42.845Z,1.80
2022-11-29T11:16:16.955Z,1.73
2022-11-29T11:18:46.044Z,1.45
2022-11-29T11:21:19.296Z,1.58
2022-11-29T11:23:54.825Z,1.50
2022-11-29T11:26:25.655Z,1.10
2022-11-29T11:28:59.699Z,0.80
2022-11-29T11:31:30.943Z,2.72
2022-11-29T11:34:24.991Z,1.58
2022-11-29T11:36:55.133Z,1.77
2022-11-29T11:39:25.141Z,1.98
2022-11-29T11:42:11.333Z,1.23
2022-11-29T11:44:49.452Z,0.50
2022-11-29T11:47:21.032Z,5.57
2022-11-29T11:49:51.765Z,1.08
2022-11-29T11:52:24.594Z,1.40
2022-11-29T11:54:55.656Z,0.77
2022-11-29T11:57:26.313Z,0.77
2022-11-29T11:59:58.712Z,0.88
2022-11-29T12:02:41.820Z,0.90
2022-11-29T12:05:15.666Z,1.17
2022-11-29T12:08:08.423Z,1.10
2022-11-29T12:10:40.532Z,0.88
2022-11-29T12:13:18.574Z,0.80
2022-11-29T12:15:50.015Z,1.02
2022-11-29T12:18:27.583Z,1.30
2022-11-29T12:20:59.546Z,1.60
2022-11-29T12:23:36.480Z,1.17
2022-11-29T12:26:13.655Z,1.30
2022-11-29T12:28:48.383Z,1.90
2022-11-29T12:31:31.680Z,0.73
2022-11-29T12:34:13.129Z,0.90
2022-11-29T12:36:49.604Z,1.30
2022-11-29T12:39:49.671Z,0.93
2022-11-29T12:42:27.550Z,1.00
2022-11-29T12:45:04.792Z,0.77
2022-11-29T12:47:48.832Z,2.05
2022-11-29T12:50:33.388Z,1.30
2022-11-29T12:53:15.036Z,1.40
2022-11-29T12:55:54.837Z,1.08
2022-11-29T12:58:31.870Z,0.90
2022-11-29T13:01:09.253Z,1.10
2022-11-29T13:03:46.068Z,1.17
2022-11-29T13:06:30.564Z,1.30
2022-11-29T13:09:22.665Z,0.90
2022-11-29T13:11:57.807Z,1.63
2022-11-29T13:14:42.611Z,2.35
2022-11-29T13:17:26.606Z,1.50
2022-11-29T13:19:57.833Z,1.75
2022-11-29T13:22:39.597Z,1.65
2022-11-29T13:25:17.062Z,1.30
2022-11-29T13:27:58.574Z,1.42
2022-11-29T13:30:27.426Z,1.17
2022-11-29T13:33:03.815Z,1.55
2022-11-29T13:35:40.070Z,1.48
2022-11-29T13:38:16.117Z,1.58
2022-11-29T13:40:55.677Z,1.10
2022-11-29T13:43:31.883Z,2.08
2022-11-29T13:46:08.884Z,1.10
2022-11-29T13:48:48.965Z,1.63
2022-11-29T13:51:31.069Z,1.63
2022-11-29T13:54:02.698Z,1.35
2022-11-29T13:56:43.111Z,1.45
2022-11-29T13:59:20.650Z,2.08
2022-11-29T14:01:53.852Z,1.88
2022-11-29T14:04:31.443Z,1.80
2022-11-29T14:07:12.476Z,1.50
2022-11-29T14:09:57.080Z,1.10
2022-11-29T14:12:39.721Z,1.38
2022-11-29T14:17:54.148Z,1.15
2022-11-29T14:20:59.201Z,1.20
2022-11-29T14:23:44.139Z,1.60
2022-11-29T14:26:28.956Z,1.10
2022-11-29T14:28:58.893Z,1.38
2022-11-29T14:31:52.304Z,1.83
2022-11-29T14:34:34.083Z,0.98
2022-11-29T14:37:21.754Z,1.33
2022-11-29T14:39:54.064Z,1.40
2022-11-29T14:42:24.433Z,1.05
2022-11-29T14:44:54.736Z,1.08
2022-11-29T14:47:34.495Z,0.80
2022-11-29T14:50:07.563Z,1.15
2022-11-29T14:52:39.963Z,0.70
2022-11-29T14:58:17.072Z,1.23
2022-11-29T15:00:57.169Z,0.80
2022-11-29T15:03:33.116Z,0.57
2022-11-29T15:06:10.675Z,1.08
2022-11-29T15:08:48.118Z,1.10
2022-11-29T15:11:25.280Z,0.93
2022-11-29T15:13:59.955Z,0.80
2022-11-29T15:16:54.698Z,0.98
2022-11-29T15:19:57.834Z,1.17
2022-11-29T15:25:00.829Z,0.82
2022-11-29T15:27:30.648Z,1.00
2022-11-29T15:30:00.215Z,2.33
2022-11-29T15:32:31.156Z,1.25
2022-11-29T15:35:01.213Z,1.15
2022-11-29T15:37:44.655Z,1.75
2022-11-29T15:40:16.302Z,1.98
2022-11-29T15:42:48.639Z,1.23
2022-11-29T15:45:32.739Z,1.30
2022-11-29T15:48:28.967Z,1.60
2022-11-29T15:51:04.903Z,1.42
2022-11-29T15:53:39.328Z,1.15
2022-11-29T15:56:15.934Z,1.50
2022-11-29T15:58:46.990Z,1.42
2022-11-29T16:01:20.726Z,1.48
2022-11-29T16:03:51.697Z,1.10
2022-11-29T16:06:27.596Z,1.67
2022-11-29T16:08:56.459Z,1.67
2022-11-29T16:11:28.900Z,1.15
2022-11-29T16:16:35.548Z,1.00
2022-11-29T16:19:19.239Z,1.80
2022-11-29T16:22:00.722Z,1.20
2022-11-29T16:24:29.275Z,32.28
2022-11-29T16:26:58.554Z,18.13
2022-11-29T16:29:31.068Z,15.50
2022-11-29T16:32:00.431Z,9.77
2022-11-29T16:34:33.064Z,7.70
2022-11-29T16:39:32.599Z,4.05
2022-11-29T16:42:14.911Z,2.28
2022-11-29T16:45:05.047Z,2.88
2022-11-29T16:47:49.161Z,2.90
2022-11-29T16:50:21.078Z,2.28
2022-11-29T16:52:56.392Z,2.20
2022-11-29T16:55:25.985Z,1.98
2022-11-29T16:57:54.243Z,2.28
2022-11-29T17:00:31.946Z,2.35
2022-11-29T17:03:00.665Z,2.83
2022-11-29T17:05:29.425Z,1.75
2022-11-29T17:07:59.547Z,2.13
2022-11-29T17:10:29.185Z,2.28
2022-11-29T17:12:58.472Z,2.53
2022-11-29T17:15:26.731Z,2.78
2022-11-29T17:17:55.095Z,4.28
2022-11-29T17:20:24.132Z,4.10
2022-11-29T17:22:53.176Z,7.47
2022-11-29T17:25:22.856Z,7.22
2022-11-29T17:27:51.276Z,6.63
2022-11-29T17:30:19.868Z,4.72
2022-11-29T17:32:48.147Z,6.82
2022-11-29T17:35:16.680Z,6.97
2022-11-29T17:37:44.969Z,4.60
2022-11-29T17:40:15.412Z,5.00
2022-11-29T17:42:45.255Z,7.22
2022-11-29T17:45:13.571Z,8.27
2022-11-29T17:47:41.870Z,10.15
2022-11-29T17:50:11.410Z,10.75
2022-11-29T17:52:39.873Z,11.00
2022-11-29T17:55:10.140Z,13.95
2022-11-29T17:57:38.573Z,10.48
2022-11-29T18:00:11.413Z,7.88
2022-11-29T18:02:40.221Z,8.93
2022-11-29T18:05:09.467Z,8.85
2022-11-29T18:07:58.016Z,9.05
2022-11-29T18:10:27.020Z,9.18
2022-11-29T18:12:55.691Z,9.15
2022-11-29T18:15:25.436Z,9.60
2022-11-29T18:17:53.753Z,8.60
2022-11-29T18:20:21.975Z,8.60
2022-11-29T18:22:50.282Z,7.53
2022-11-29T18:25:38.060Z,6.85
2022-11-29T18:28:11.393Z,6.32
2022-11-29T18:30:41.482Z,8.43
2022-11-29T18:33:09.957Z,7.03
2022-11-29T18:35:38.234Z,8.65
2022-11-29T18:38:15.291Z,7.25
2022-11-29T18:40:45.880Z,7.18
2022-11-29T18:43:17.756Z,8.40
2022-11-29T18:45:48.934Z,9.45
2022-11-29T18:48:17.328Z,8.65
2022-11-29T18:50:45.898Z,8.52
2022-11-29T18:53:14.681Z,8.38
2022-11-29T18:55:42.985Z,7.40
2022-11-29T18:58:11.255Z,7.53
2022-11-29T19:00:40.970Z,6.53
2022-11-29T19:03:12.882Z,5.50
2022-11-29T19:05:41.204Z,4.60
2022-11-29T19:08:09.355Z,4.82
2022-11-29T19:10:38.929Z,34.65
2022-11-29T19:13:08.010Z,6.25
2022-11-29T19:15:36.282Z,5.07
2022-11-29T19:18:04.484Z,4.95
2022-11-29T19:20:34.791Z,5.93
2022-11-29T19:23:03.044Z,5.00
2022-11-29T19:25:31.206Z,5.18
2022-11-29T19:27:59.564Z,4.65
2022-11-29T19:30:28.987Z,4.93
2022-11-29T19:32:57.235Z,4.60
2022-11-29T19:35:25.500Z,4.70
2022-11-29T19:37:55.173Z,5.00
2022-11-29T19:40:23.470Z,4.85
2022-11-29T19:42:51.709Z,3.97
2022-11-29T19:45:19.950Z,5.18
2022-11-29T19:47:48.194Z,5.05
2022-11-29T19:50:16.755Z,5.28
2022-11-29T19:52:45.012Z,5.40
2022-11-29T19:55:14.629Z,5.88
2022-11-29T19:57:44.808Z,7.35
2022-11-29T20:00:14.345Z,7.32
2022-11-29T20:02:42.961Z,6.63
2022-11-29T20:05:12.668Z,6.60
2022-11-29T20:07:41.216Z,6.05
2022-11-29T20:10:10.110Z,5.15
2022-11-29T20:12:40.135Z,5.10
2022-11-29T20:15:09.522Z,4.85
2022-11-29T20:17:38.967Z,5.60
2022-11-29T20:20:08.615Z,4.78
2022-11-29T20:22:37.287Z,4.47
2022-11-29T20:25:06.782Z,4.97
2022-11-29T20:27:35.718Z,4.40
2022-11-29T20:30:06.126Z,4.00
2022-11-29T20:32:36.417Z,4.88
2022-11-29T20:35:05.584Z,5.78
2022-11-29T20:37:49.485Z,5.60
2022-11-29T20:40:21.310Z,3.58
2022-11-29T20:43:06.312Z,5.07
2022-11-29T20:45:37.618Z,5.13
2022-11-29T20:48:13.239Z,5.05
2022-11-29T20:50:45.125Z,5.20
2022-11-29T20:53:27.596Z,4.22
2022-11-29T20:55:57.109Z,4.82
2022-11-29T20:58:26.583Z,4.72
2022-11-29T21:00:56.914Z,3.78
2022-11-29T21:03:25.736Z,3.83
2022-11-29T21:05:55.677Z,3.95
2022-11-29T21:08:27.239Z,4.05
2022-11-29T21:10:55.983Z,4.50
2022-11-29T21:13:24.871Z,4.93
2022-11-29T21:15:53.737Z,3.95
2022-11-29T21:18:26.191Z,4.63
2022-11-29T21:21:07.846Z,4.57
2022-11-29T21:23:46.536Z,4.13
2022-11-29T21:26:17.990Z,3.60
2022-11-29T21:28:58.721Z,5.18
2022-11-29T21:31:28.558Z,5.20
2022-11-29T21:33:58.908Z,5.88
2022-11-29T21:36:27.168Z,4.45
2022-11-29T21:38:55.694Z,9.43
2022-11-29T21:41:24.746Z,3.85
2022-11-29T21:44:08.681Z,4.78
2022-11-29T21:46:37.126Z,2.78
2022-11-29T21:49:06.880Z,4.15
2022-11-29T21:51:35.068Z,3.50
2022-11-29T21:54:03.411Z,7.03
2022-11-29T21:56:31.838Z,3.20
2022-11-29T21:59:00.076Z,3.65
2022-11-29T22:01:30.057Z,3.42
2022-11-29T22:03:58.391Z,3.58
2022-11-29T22:06:29.454Z,3.25
2022-11-29T22:09:00.712Z,2.60
2022-11-29T22:11:35.571Z,4.00
2022-11-29T22:14:14.888Z,2.55
2022-11-29T22:16:44.345Z,2.95
2022-11-29T22:19:14.467Z,2.92
2022-11-29T22:21:47.054Z,2.40
2022-11-29T22:26:44.627Z,2.38
2022-11-29T22:29:14.241Z,2.60
2022-11-29T22:31:42.920Z,2.15
2022-11-29T22:34:11.645Z,3.08
2022-11-29T22:36:40.652Z,2.28
2022-11-29T22:39:10.527Z,3.20
2022-11-29T22:41:41.041Z,3.05
2022-11-29T22:44:09.641Z,2.33
2022-11-29T22:46:41.282Z,2.05
2022-11-29T22:49:10.661Z,1.80
2022-11-29T22:51:39.748Z,2.28
2022-11-29T22:54:11.594Z,2.10
2022-11-29T22:56:42.322Z,2.00
2022-11-29T22:59:11.092Z,2.25
2022-11-29T23:01:40.833Z,2.42
2022-11-29T23:04:11.602Z,2.05
2022-11-29T23:06:42.321Z,2.20
2022-11-29T23:09:16.099Z,1.50
2022-11-29T23:11:46.170Z,1.40
2022-11-29T23:14:15.917Z,1.90
2022-11-29T23:16:44.683Z,1.98
2022-11-29T23:19:12.993Z,1.85
2022-11-29T23:21:44.745Z,2.22
2022-11-29T23:24:15.575Z,2.93
2022-11-29T23:26:45.978Z,5.47
2022-11-29T23:29:16.034Z,8.13
2022-11-29T23:31:44.613Z,1.73
2022-11-29T23:34:13.126Z,2.00
2022-11-29T23:36:41.614Z,1.83
2022-11-29T23:39:09.992Z,1.77
2022-11-29T23:41:39.649Z,1.20
2022-11-29T23:44:09.393Z,1.80
2022-11-29T23:46:39.555Z,1.52
2022-11-29T23:49:07.823Z,1.00
2022-11-29T23:51:37.327Z,1.73
2022-11-29T23:54:06.539Z,1.25
2022-11-29T23:56:35.588Z,1.63
2022-11-29T23:59:05.840Z,1.20
